sensor_id;sensor_type;location;lat;lon;timestamp;P1;durP1;ratioP1;P2;durP2;ratioP2
75446;SDS011;64024;55.820;37.574;2023-03-26T00:02:03;5.63;;;4.40;;
75446;SDS011;64024;55.820;37.574;2023-03-26T00:04:29;5.63;;;3.83;;
75446;SDS011;64024;55.820;37.574;2023-03-26T00:06:57;4.38;;;3.95;;
75446;SDS011;64024;55.820;37.574;2023-03-26T00:09:23;4.38;;;3.97;;
75446;SDS011;64024;55.820;37.574;2023-03-26T00:11:49;4.63;;;3.92;;
75446;SDS011;64024;55.820;37.574;2023-03-26T00:14:14;7.82;;;5.10;;
75446;SDS011;64024;55.820;37.574;2023-03-26T00:16:42;5.03;;;4.53;;
75446;SDS011;64024;55.820;37.574;2023-03-26T00:19:11;5.63;;;4.35;;
75446;SDS011;64024;55.820;37.574;2023-03-26T00:21:39;8.18;;;4.68;;
75446;SDS011;64024;55.820;37.574;2023-03-26T00:24:12;6.80;;;5.03;;
75446;SDS011;64024;55.820;37.574;2023-03-26T00:26:41;6.03;;;5.43;;
75446;SDS011;64024;55.820;37.574;2023-03-26T00:29:19;5.00;;;4.40;;
75446;SDS011;64024;55.820;37.574;2023-03-26T00:31:47;5.13;;;4.63;;
75446;SDS011;64024;55.820;37.574;2023-03-26T00:34:13;6.60;;;5.57;;
75446;SDS011;64024;55.820;37.574;2023-03-26T00:36:42;6.55;;;5.65;;
75446;SDS011;64024;55.820;37.574;2023-03-26T00:39:14;6.05;;;5.47;;
75446;SDS011;64024;55.820;37.574;2023-03-26T00:41:41;5.90;;;5.30;;
75446;SDS011;64024;55.820;37.574;2023-03-26T00:44:08;5.95;;;5.13;;
75446;SDS011;64024;55.820;37.574;2023-03-26T00:46:36;6.05;;;5.55;;
75446;SDS011;64024;55.820;37.574;2023-03-26T00:49:01;6.78;;;5.60;;
75446;SDS011;64024;55.820;37.574;2023-03-26T00:51:28;6.35;;;5.75;;
75446;SDS011;64024;55.820;37.574;2023-03-26T00:53:54;6.75;;;6.13;;
75446;SDS011;64024;55.820;37.574;2023-03-26T00:56:45;5.90;;;5.30;;
75446;SDS011;64024;55.820;37.574;2023-03-26T01:02:00;6.28;;;5.68;;
75446;SDS011;64024;55.820;37.574;2023-03-26T01:04:27;7.82;;;7.00;;
75446;SDS011;64024;55.820;37.574;2023-03-26T01:06:56;6.75;;;6.15;;
75446;SDS011;64024;55.820;37.574;2023-03-26T01:09:25;7.78;;;7.18;;
75446;SDS011;64024;55.820;37.574;2023-03-26T01:11:57;6.82;;;6.05;;
75446;SDS011;64024;55.820;37.574;2023-03-26T01:14:25;7.70;;;6.95;;
75446;SDS011;64024;55.820;37.574;2023-03-26T01:16:54;7.22;;;6.60;;
75446;SDS011;64024;55.820;37.574;2023-03-26T01:19:29;7.13;;;6.47;;
75446;SDS011;64024;55.820;37.574;2023-03-26T01:24:51;6.50;;;5.90;;
75446;SDS011;64024;55.820;37.574;2023-03-26T01:27:37;7.22;;;6.53;;
75446;SDS011;64024;55.820;37.574;2023-03-26T01:41:06;7.53;;;6.82;;
75446;SDS011;64024;55.820;37.574;2023-03-26T01:43:53;7.15;;;6.45;;
75446;SDS011;64024;55.820;37.574;2023-03-26T01:46:29;7.40;;;6.70;;
75446;SDS011;64024;55.820;37.574;2023-03-26T01:51:47;6.95;;;6.35;;
75446;SDS011;64024;55.820;37.574;2023-03-26T01:54:36;6.78;;;6.18;;
75446;SDS011;64024;55.820;37.574;2023-03-26T01:59:42;6.35;;;5.75;;
75446;SDS011;64024;55.820;37.574;2023-03-26T02:02:16;6.97;;;6.28;;
75446;SDS011;64024;55.820;37.574;2023-03-26T02:05:16;6.60;;;5.88;;
75446;SDS011;64024;55.820;37.574;2023-03-26T02:07:53;7.28;;;6.40;;
75446;SDS011;64024;55.820;37.574;2023-03-26T02:10:33;7.20;;;6.60;;
75446;SDS011;64024;55.820;37.574;2023-03-26T02:13:02;6.88;;;6.22;;
75446;SDS011;64024;55.820;37.574;2023-03-26T02:17:55;6.25;;;5.50;;
75446;SDS011;64024;55.820;37.574;2023-03-26T02:23:10;6.43;;;5.88;;
75446;SDS011;64024;55.820;37.574;2023-03-26T02:25:35;6.03;;;5.43;;
75446;SDS011;64024;55.820;37.574;2023-03-26T02:28:08;7.53;;;5.53;;
75446;SDS011;64024;55.820;37.574;2023-03-26T02:30:55;5.97;;;5.43;;
75446;SDS011;64024;55.820;37.574;2023-03-26T02:33:22;5.95;;;5.43;;
75446;SDS011;64024;55.820;37.574;2023-03-26T02:35:50;6.05;;;5.45;;
75446;SDS011;64024;55.820;37.574;2023-03-26T02:38:15;6.03;;;5.38;;
75446;SDS011;64024;55.820;37.574;2023-03-26T02:40:43;6.25;;;5.65;;
75446;SDS011;64024;55.820;37.574;2023-03-26T02:43:08;6.00;;;5.40;;
75446;SDS011;64024;55.820;37.574;2023-03-26T02:48:29;6.57;;;5.40;;
75446;SDS011;64024;55.820;37.574;2023-03-26T02:50:55;5.47;;;4.97;;
75446;SDS011;64024;55.820;37.574;2023-03-26T02:56:36;6.00;;;5.40;;
75446;SDS011;64024;55.820;37.574;2023-03-26T02:59:04;6.20;;;5.53;;
75446;SDS011;64024;55.820;37.574;2023-03-26T03:01:35;7.32;;;5.93;;
75446;SDS011;64024;55.820;37.574;2023-03-26T03:04:01;6.18;;;5.57;;
75446;SDS011;64024;55.820;37.574;2023-03-26T03:06:28;5.68;;;5.18;;
75446;SDS011;64024;55.820;37.574;2023-03-26T03:08:55;5.93;;;5.43;;
75446;SDS011;64024;55.820;37.574;2023-03-26T03:11:20;6.00;;;5.22;;
75446;SDS011;64024;55.820;37.574;2023-03-26T03:13:47;5.25;;;4.75;;
75446;SDS011;64024;55.820;37.574;2023-03-26T03:16:13;5.47;;;4.88;;
75446;SDS011;64024;55.820;37.574;2023-03-26T03:18:43;5.47;;;4.97;;
75446;SDS011;64024;55.820;37.574;2023-03-26T03:21:10;5.72;;;5.13;;
75446;SDS011;64024;55.820;37.574;2023-03-26T03:26:42;5.55;;;4.95;;
75446;SDS011;64024;55.820;37.574;2023-03-26T03:32:12;4.50;;;3.80;;
75446;SDS011;64024;55.820;37.574;2023-03-26T03:34:40;5.30;;;4.80;;
75446;SDS011;64024;55.820;37.574;2023-03-26T03:37:06;6.15;;;5.60;;
75446;SDS011;64024;55.820;37.574;2023-03-26T03:39:34;6.05;;;5.30;;
75446;SDS011;64024;55.820;37.574;2023-03-26T03:42:00;5.50;;;5.00;;
75446;SDS011;64024;55.820;37.574;2023-03-26T03:44:25;6.00;;;4.80;;
75446;SDS011;64024;55.820;37.574;2023-03-26T03:46:51;6.47;;;5.80;;
75446;SDS011;64024;55.820;37.574;2023-03-26T03:49:20;6.10;;;5.50;;
75446;SDS011;64024;55.820;37.574;2023-03-26T03:51:46;6.10;;;5.45;;
75446;SDS011;64024;55.820;37.574;2023-03-26T03:54:11;7.22;;;6.03;;
75446;SDS011;64024;55.820;37.574;2023-03-26T03:56:37;6.43;;;5.82;;
75446;SDS011;64024;55.820;37.574;2023-03-26T03:59:03;6.53;;;5.88;;
75446;SDS011;64024;55.820;37.574;2023-03-26T04:01:48;6.88;;;5.28;;
75446;SDS011;64024;55.820;37.574;2023-03-26T04:04:15;5.95;;;5.38;;
75446;SDS011;64024;55.820;37.574;2023-03-26T04:06:41;6.78;;;5.22;;
75446;SDS011;64024;55.820;37.574;2023-03-26T04:09:09;6.57;;;5.95;;
75446;SDS011;64024;55.820;37.574;2023-03-26T04:11:35;6.47;;;5.05;;
75446;SDS011;64024;55.820;37.574;2023-03-26T04:14:01;5.88;;;5.28;;
75446;SDS011;64024;55.820;37.574;2023-03-26T04:19:13;7.05;;;5.68;;
75446;SDS011;64024;55.820;37.574;2023-03-26T04:21:45;6.55;;;5.85;;
75446;SDS011;64024;55.820;37.574;2023-03-26T04:24:11;6.40;;;5.30;;
75446;SDS011;64024;55.820;37.574;2023-03-26T04:26:36;7.40;;;6.30;;
75446;SDS011;64024;55.820;37.574;2023-03-26T04:29:03;6.82;;;6.22;;
75446;SDS011;64024;55.820;37.574;2023-03-26T04:31:30;7.97;;;6.25;;
75446;SDS011;64024;55.820;37.574;2023-03-26T04:34:17;6.68;;;5.97;;
75446;SDS011;64024;55.820;37.574;2023-03-26T04:36:48;7.25;;;6.38;;
75446;SDS011;64024;55.820;37.574;2023-03-26T04:39:13;7.43;;;6.65;;
75446;SDS011;64024;55.820;37.574;2023-03-26T04:41:40;6.53;;;5.88;;
75446;SDS011;64024;55.820;37.574;2023-03-26T04:44:06;7.50;;;6.80;;
75446;SDS011;64024;55.820;37.574;2023-03-26T04:46:32;7.53;;;6.45;;
75446;SDS011;64024;55.820;37.574;2023-03-26T04:49:02;7.63;;;6.53;;
75446;SDS011;64024;55.820;37.574;2023-03-26T04:51:35;8.02;;;6.30;;
75446;SDS011;64024;55.820;37.574;2023-03-26T04:54:02;7.38;;;6.55;;
75446;SDS011;64024;55.820;37.574;2023-03-26T04:59:48;7.60;;;6.85;;
75446;SDS011;64024;55.820;37.574;2023-03-26T05:02:17;7.28;;;6.40;;
75446;SDS011;64024;55.820;37.574;2023-03-26T05:04:45;7.95;;;7.05;;
75446;SDS011;64024;55.820;37.574;2023-03-26T05:07:12;8.68;;;7.88;;
75446;SDS011;64024;55.820;37.574;2023-03-26T05:09:42;8.68;;;7.78;;
75446;SDS011;64024;55.820;37.574;2023-03-26T05:12:08;9.98;;;7.72;;
75446;SDS011;64024;55.820;37.574;2023-03-26T05:14:33;8.45;;;7.65;;
75446;SDS011;64024;55.820;37.574;2023-03-26T05:17:00;8.00;;;6.88;;
75446;SDS011;64024;55.820;37.574;2023-03-26T05:19:30;9.30;;;8.35;;
75446;SDS011;64024;55.820;37.574;2023-03-26T05:21:56;9.70;;;8.23;;
75446;SDS011;64024;55.820;37.574;2023-03-26T05:24:25;8.93;;;8.02;;
75446;SDS011;64024;55.820;37.574;2023-03-26T05:26:52;11.02;;;9.25;;
75446;SDS011;64024;55.820;37.574;2023-03-26T05:29:18;8.68;;;7.90;;
75446;SDS011;64024;55.820;37.574;2023-03-26T05:32:02;8.63;;;7.72;;
75446;SDS011;64024;55.820;37.574;2023-03-26T05:34:28;11.52;;;8.95;;
75446;SDS011;64024;55.820;37.574;2023-03-26T05:36:58;9.43;;;8.38;;
75446;SDS011;64024;55.820;37.574;2023-03-26T05:39:24;9.40;;;8.50;;
75446;SDS011;64024;55.820;37.574;2023-03-26T05:41:52;9.35;;;8.45;;
75446;SDS011;64024;55.820;37.574;2023-03-26T05:44:18;9.50;;;8.52;;
75446;SDS011;64024;55.820;37.574;2023-03-26T05:49:27;9.88;;;8.65;;
75446;SDS011;64024;55.820;37.574;2023-03-26T05:52:30;10.35;;;9.45;;
75446;SDS011;64024;55.820;37.574;2023-03-26T05:55:17;10.13;;;9.15;;
75446;SDS011;64024;55.820;37.574;2023-03-26T05:57:44;10.18;;;9.05;;
75446;SDS011;64024;55.820;37.574;2023-03-26T06:00:10;9.80;;;8.85;;
75446;SDS011;64024;55.820;37.574;2023-03-26T06:02:39;11.05;;;9.98;;
75446;SDS011;64024;55.820;37.574;2023-03-26T06:05:06;10.50;;;9.35;;
75446;SDS011;64024;55.820;37.574;2023-03-26T06:07:33;11.15;;;10.15;;
75446;SDS011;64024;55.820;37.574;2023-03-26T06:10:01;11.73;;;9.73;;
75446;SDS011;64024;55.820;37.574;2023-03-26T06:12:27;10.95;;;9.85;;
75446;SDS011;64024;55.820;37.574;2023-03-26T06:14:53;12.73;;;11.43;;
75446;SDS011;64024;55.820;37.574;2023-03-26T06:17:18;12.57;;;11.32;;
75446;SDS011;64024;55.820;37.574;2023-03-26T06:20:02;11.77;;;10.63;;
75446;SDS011;64024;55.820;37.574;2023-03-26T06:22:47;13.77;;;11.65;;
75446;SDS011;64024;55.820;37.574;2023-03-26T06:25:34;11.73;;;10.52;;
75446;SDS011;64024;55.820;37.574;2023-03-26T06:28:19;12.32;;;11.10;;
75446;SDS011;64024;55.820;37.574;2023-03-26T06:30:45;12.77;;;11.57;;
75446;SDS011;64024;55.820;37.574;2023-03-26T06:33:10;11.20;;;10.07;;
75446;SDS011;64024;55.820;37.574;2023-03-26T06:35:36;14.15;;;12.65;;
75446;SDS011;64024;55.820;37.574;2023-03-26T06:38:01;12.00;;;10.80;;
75446;SDS011;64024;55.820;37.574;2023-03-26T06:40:27;11.77;;;10.65;;
75446;SDS011;64024;55.820;37.574;2023-03-26T06:42:56;11.88;;;10.48;;
75446;SDS011;64024;55.820;37.574;2023-03-26T06:45:21;13.80;;;12.45;;
75446;SDS011;64024;55.820;37.574;2023-03-26T06:47:47;13.93;;;12.52;;
75446;SDS011;64024;55.820;37.574;2023-03-26T06:53:18;13.85;;;12.50;;
75446;SDS011;64024;55.820;37.574;2023-03-26T06:55:44;12.93;;;11.70;;
75446;SDS011;64024;55.820;37.574;2023-03-26T06:58:28;15.20;;;13.68;;
75446;SDS011;64024;55.820;37.574;2023-03-26T07:00:54;14.82;;;13.38;;
75446;SDS011;64024;55.820;37.574;2023-03-26T07:03:21;13.30;;;12.02;;
75446;SDS011;64024;55.820;37.574;2023-03-26T07:05:47;13.82;;;12.43;;
75446;SDS011;64024;55.820;37.574;2023-03-26T07:08:21;13.57;;;12.13;;
75446;SDS011;64024;55.820;37.574;2023-03-26T07:10:46;14.27;;;12.88;;
75446;SDS011;64024;55.820;37.574;2023-03-26T07:13:12;13.98;;;12.57;;
75446;SDS011;64024;55.820;37.574;2023-03-26T07:15:37;14.27;;;12.77;;
75446;SDS011;64024;55.820;37.574;2023-03-26T07:18:21;13.40;;;12.10;;
75446;SDS011;64024;55.820;37.574;2023-03-26T07:20:47;13.23;;;11.93;;
75446;SDS011;64024;55.820;37.574;2023-03-26T07:23:12;13.23;;;11.93;;
75446;SDS011;64024;55.820;37.574;2023-03-26T07:25:39;13.38;;;12.00;;
75446;SDS011;64024;55.820;37.574;2023-03-26T07:31:33;13.98;;;11.43;;
75446;SDS011;64024;55.820;37.574;2023-03-26T07:34:04;13.25;;;11.85;;
75446;SDS011;64024;55.820;37.574;2023-03-26T07:36:37;12.10;;;11.00;;
75446;SDS011;64024;55.820;37.574;2023-03-26T07:41:58;12.02;;;10.85;;
75446;SDS011;64024;55.820;37.574;2023-03-26T07:44:40;11.68;;;10.48;;
75446;SDS011;64024;55.820;37.574;2023-03-26T07:47:31;13.55;;;12.35;;
75446;SDS011;64024;55.820;37.574;2023-03-26T07:50:01;12.80;;;11.60;;
75446;SDS011;64024;55.820;37.574;2023-03-26T07:55:12;11.93;;;10.73;;
75446;SDS011;64024;55.820;37.574;2023-03-26T08:00:24;10.02;;;8.93;;
75446;SDS011;64024;55.820;37.574;2023-03-26T08:03:26;11.32;;;10.25;;
75446;SDS011;64024;55.820;37.574;2023-03-26T08:14:17;10.15;;;9.20;;
75446;SDS011;64024;55.820;37.574;2023-03-26T08:16:53;10.05;;;9.05;;
75446;SDS011;64024;55.820;37.574;2023-03-26T08:22:39;9.63;;;8.77;;
75446;SDS011;64024;55.820;37.574;2023-03-26T08:28:22;10.32;;;9.32;;
75446;SDS011;64024;55.820;37.574;2023-03-26T08:31:16;8.98;;;8.10;;
75446;SDS011;64024;55.820;37.574;2023-03-26T08:33:44;9.63;;;8.07;;
75446;SDS011;64024;55.820;37.574;2023-03-26T08:36:09;8.63;;;7.80;;
75446;SDS011;64024;55.820;37.574;2023-03-26T08:38:35;9.07;;;8.27;;
75446;SDS011;64024;55.820;37.574;2023-03-26T08:55:32;7.95;;;6.70;;
75446;SDS011;64024;55.820;37.574;2023-03-26T08:58:21;7.75;;;7.05;;
75446;SDS011;64024;55.820;37.574;2023-03-26T09:04:23;8.55;;;7.75;;
75446;SDS011;64024;55.820;37.574;2023-03-26T09:14:56;5.82;;;5.30;;
75446;SDS011;64024;55.820;37.574;2023-03-26T09:34:26;4.80;;;4.40;;
75446;SDS011;64024;55.820;37.574;2023-03-26T09:36:53;4.35;;;3.95;;
75446;SDS011;64024;55.820;37.574;2023-03-26T09:39:41;4.60;;;3.40;;
75446;SDS011;64024;55.820;37.574;2023-03-26T09:48:34;4.13;;;3.53;;
75446;SDS011;64024;55.820;37.574;2023-03-26T09:51:35;3.58;;;3.28;;
75446;SDS011;64024;55.820;37.574;2023-03-26T10:02:18;3.67;;;3.05;;
75446;SDS011;64024;55.820;37.574;2023-03-26T10:22:21;3.55;;;3.10;;
75446;SDS011;64024;55.820;37.574;2023-03-26T10:35:43;5.45;;;3.85;;
75446;SDS011;64024;55.820;37.574;2023-03-26T10:41:12;5.18;;;4.25;;
75446;SDS011;64024;55.820;37.574;2023-03-26T10:49:39;4.45;;;3.88;;
75446;SDS011;64024;55.820;37.574;2023-03-26T10:52:23;5.82;;;4.93;;
75446;SDS011;64024;55.820;37.574;2023-03-26T10:55:25;4.80;;;3.78;;
75446;SDS011;64024;55.820;37.574;2023-03-26T11:05:43;5.70;;;4.10;;
75446;SDS011;64024;55.820;37.574;2023-03-26T11:14:31;9.25;;;4.50;;
75446;SDS011;64024;55.820;37.574;2023-03-26T11:17:03;7.15;;;5.60;;
75446;SDS011;64024;55.820;37.574;2023-03-26T11:19:42;11.13;;;6.15;;
75446;SDS011;64024;55.820;37.574;2023-03-26T11:22:28;6.28;;;4.88;;
75446;SDS011;64024;55.820;37.574;2023-03-26T11:32:48;7.78;;;4.32;;
75446;SDS011;64024;55.820;37.574;2023-03-26T11:35:58;5.75;;;4.75;;
75446;SDS011;64024;55.820;37.574;2023-03-26T11:40:53;5.40;;;4.32;;
75446;SDS011;64024;55.820;37.574;2023-03-26T11:43:35;5.68;;;4.72;;
75446;SDS011;64024;55.820;37.574;2023-03-26T11:46:02;5.25;;;4.50;;
75446;SDS011;64024;55.820;37.574;2023-03-26T11:51:21;7.15;;;4.22;;
75446;SDS011;64024;55.820;37.574;2023-03-26T11:53:53;7.68;;;5.03;;
75446;SDS011;64024;55.820;37.574;2023-03-26T12:04:36;5.60;;;4.65;;
75446;SDS011;64024;55.820;37.574;2023-03-26T12:07:18;5.53;;;4.57;;
75446;SDS011;64024;55.820;37.574;2023-03-26T12:09:49;5.57;;;4.43;;
75446;SDS011;64024;55.820;37.574;2023-03-26T12:12:20;7.20;;;4.95;;
75446;SDS011;64024;55.820;37.574;2023-03-26T12:14:49;7.22;;;4.18;;
75446;SDS011;64024;55.820;37.574;2023-03-26T12:19:58;6.80;;;4.57;;
75446;SDS011;64024;55.820;37.574;2023-03-26T12:25:11;5.25;;;4.75;;
75446;SDS011;64024;55.820;37.574;2023-03-26T12:27:46;6.38;;;4.97;;
75446;SDS011;64024;55.820;37.574;2023-03-26T12:33:00;8.02;;;5.82;;
75446;SDS011;64024;55.820;37.574;2023-03-26T12:35:32;6.75;;;5.97;;
75446;SDS011;64024;55.820;37.574;2023-03-26T12:38:15;6.03;;;5.45;;
75446;SDS011;64024;55.820;37.574;2023-03-26T12:40:47;7.13;;;6.47;;
75446;SDS011;64024;55.820;37.574;2023-03-26T12:43:30;6.18;;;5.30;;
75446;SDS011;64024;55.820;37.574;2023-03-26T12:46:02;7.30;;;5.68;;
75446;SDS011;64024;55.820;37.574;2023-03-26T12:48:43;5.95;;;5.45;;
75446;SDS011;64024;55.820;37.574;2023-03-26T12:57:03;6.93;;;6.28;;
75446;SDS011;64024;55.820;37.574;2023-03-26T12:59:55;6.75;;;5.93;;
75446;SDS011;64024;55.820;37.574;2023-03-26T13:02:36;6.72;;;5.72;;
75446;SDS011;64024;55.820;37.574;2023-03-26T13:19:18;8.52;;;7.20;;
75446;SDS011;64024;55.820;37.574;2023-03-26T13:33:24;7.80;;;5.65;;
75446;SDS011;64024;55.820;37.574;2023-03-26T13:36:20;8.68;;;6.93;;
75446;SDS011;64024;55.820;37.574;2023-03-26T13:41:55;8.70;;;6.93;;
75446;SDS011;64024;55.820;37.574;2023-03-26T13:44:55;8.18;;;5.82;;
75446;SDS011;64024;55.820;37.574;2023-03-26T13:47:24;7.78;;;5.95;;
75446;SDS011;64024;55.820;37.574;2023-03-26T13:50:00;9.55;;;6.10;;
75446;SDS011;64024;55.820;37.574;2023-03-26T13:52:36;7.88;;;6.70;;
75446;SDS011;64024;55.820;37.574;2023-03-26T13:55:21;8.60;;;6.45;;
75446;SDS011;64024;55.820;37.574;2023-03-26T14:01:18;8.73;;;6.85;;
75446;SDS011;64024;55.820;37.574;2023-03-26T14:08:50;7.45;;;6.18;;
75446;SDS011;64024;55.820;37.574;2023-03-26T14:14:57;7.50;;;5.57;;
75446;SDS011;64024;55.820;37.574;2023-03-26T14:29:04;7.00;;;6.03;;
75446;SDS011;64024;55.820;37.574;2023-03-26T14:47:41;7.03;;;6.20;;
75446;SDS011;64024;55.820;37.574;2023-03-26T14:53:28;7.03;;;6.32;;
75446;SDS011;64024;55.820;37.574;2023-03-26T15:13:04;6.97;;;4.78;;
75446;SDS011;64024;55.820;37.574;2023-03-26T15:30:01;5.50;;;4.88;;
75446;SDS011;64024;55.820;37.574;2023-03-26T15:35:54;4.40;;;4.00;;
75446;SDS011;64024;55.820;37.574;2023-03-26T15:38:52;4.70;;;4.25;;
75446;SDS011;64024;55.820;37.574;2023-03-26T15:50:18;8.20;;;6.63;;
75446;SDS011;64024;55.820;37.574;2023-03-26T15:58:28;9.07;;;7.85;;
75446;SDS011;64024;55.820;37.574;2023-03-26T16:11:41;6.95;;;4.90;;
75446;SDS011;64024;55.820;37.574;2023-03-26T16:14:38;5.70;;;5.00;;
75446;SDS011;64024;55.820;37.574;2023-03-26T16:17:18;5.13;;;4.63;;
75446;SDS011;64024;55.820;37.574;2023-03-26T16:20:12;6.07;;;4.90;;
75446;SDS011;64024;55.820;37.574;2023-03-26T16:23:00;6.07;;;4.97;;
75446;SDS011;64024;55.820;37.574;2023-03-26T16:25:31;6.75;;;6.05;;
75446;SDS011;64024;55.820;37.574;2023-03-26T16:30:37;7.55;;;6.00;;
75446;SDS011;64024;55.820;37.574;2023-03-26T16:33:13;6.45;;;5.82;;
75446;SDS011;64024;55.820;37.574;2023-03-26T16:38:15;6.80;;;6.03;;
75446;SDS011;64024;55.820;37.574;2023-03-26T16:40:49;6.45;;;5.80;;
75446;SDS011;64024;55.820;37.574;2023-03-26T16:46:36;7.65;;;6.00;;
75446;SDS011;64024;55.820;37.574;2023-03-26T16:54:37;10.30;;;6.88;;
75446;SDS011;64024;55.820;37.574;2023-03-26T17:05:21;5.85;;;5.15;;
75446;SDS011;64024;55.820;37.574;2023-03-26T17:13:41;5.75;;;5.22;;
75446;SDS011;64024;55.820;37.574;2023-03-26T17:22:10;6.75;;;5.15;;
75446;SDS011;64024;55.820;37.574;2023-03-26T17:24:48;7.20;;;5.13;;
75446;SDS011;64024;55.820;37.574;2023-03-26T17:27:26;5.63;;;4.70;;
75446;SDS011;64024;55.820;37.574;2023-03-26T17:33:21;3.80;;;3.47;;
75446;SDS011;64024;55.820;37.574;2023-03-26T17:35:48;4.05;;;3.65;;
75446;SDS011;64024;55.820;37.574;2023-03-26T17:40:50;4.25;;;3.75;;
75446;SDS011;64024;55.820;37.574;2023-03-26T17:43:31;4.63;;;4.22;;
75446;SDS011;64024;55.820;37.574;2023-03-26T17:54:42;4.55;;;4.00;;
75446;SDS011;64024;55.820;37.574;2023-03-26T17:59:40;4.00;;;3.58;;
75446;SDS011;64024;55.820;37.574;2023-03-26T18:02:11;5.97;;;4.07;;
75446;SDS011;64024;55.820;37.574;2023-03-26T18:04:40;5.38;;;4.43;;
75446;SDS011;64024;55.820;37.574;2023-03-26T18:20:36;4.20;;;3.80;;
75446;SDS011;64024;55.820;37.574;2023-03-26T18:23:19;5.30;;;4.32;;
75446;SDS011;64024;55.820;37.574;2023-03-26T18:25:51;5.53;;;4.40;;
75446;SDS011;64024;55.820;37.574;2023-03-26T18:28:38;4.88;;;3.88;;
75446;SDS011;64024;55.820;37.574;2023-03-26T18:31:07;5.88;;;5.15;;
75446;SDS011;64024;55.820;37.574;2023-03-26T18:33:41;4.93;;;3.40;;
75446;SDS011;64024;55.820;37.574;2023-03-26T18:36:09;4.72;;;4.07;;
75446;SDS011;64024;55.820;37.574;2023-03-26T18:38:35;5.38;;;4.32;;
75446;SDS011;64024;55.820;37.574;2023-03-26T18:41:01;4.75;;;4.32;;
75446;SDS011;64024;55.820;37.574;2023-03-26T18:43:27;5.85;;;3.60;;
75446;SDS011;64024;55.820;37.574;2023-03-26T18:45:53;4.53;;;4.13;;
75446;SDS011;64024;55.820;37.574;2023-03-26T18:48:22;4.88;;;4.38;;
75446;SDS011;64024;55.820;37.574;2023-03-26T18:50:52;7.10;;;3.45;;
75446;SDS011;64024;55.820;37.574;2023-03-26T18:53:21;4.63;;;4.00;;
75446;SDS011;64024;55.820;37.574;2023-03-26T18:55:49;4.25;;;3.55;;
75446;SDS011;64024;55.820;37.574;2023-03-26T18:58:22;4.32;;;3.50;;
75446;SDS011;64024;55.820;37.574;2023-03-26T19:00:51;4.10;;;3.70;;
75446;SDS011;64024;55.820;37.574;2023-03-26T19:03:21;3.92;;;3.50;;
75446;SDS011;64024;55.820;37.574;2023-03-26T19:05:51;4.10;;;3.40;;
75446;SDS011;64024;55.820;37.574;2023-03-26T19:08:20;4.43;;;3.75;;
75446;SDS011;64024;55.820;37.574;2023-03-26T19:10:48;4.57;;;4.07;;
75446;SDS011;64024;55.820;37.574;2023-03-26T19:13:15;3.83;;;3.50;;
75446;SDS011;64024;55.820;37.574;2023-03-26T19:15:44;3.75;;;3.33;;
75446;SDS011;64024;55.820;37.574;2023-03-26T19:18:12;5.10;;;3.80;;
75446;SDS011;64024;55.820;37.574;2023-03-26T19:20:50;4.60;;;3.70;;
75446;SDS011;64024;55.820;37.574;2023-03-26T19:23:19;4.07;;;3.35;;
75446;SDS011;64024;55.820;37.574;2023-03-26T19:25:48;4.35;;;3.63;;
75446;SDS011;64024;55.820;37.574;2023-03-26T19:31:09;4.25;;;3.85;;
75446;SDS011;64024;55.820;37.574;2023-03-26T19:33:52;4.55;;;3.35;;
75446;SDS011;64024;55.820;37.574;2023-03-26T19:36:24;4.07;;;3.05;;
75446;SDS011;64024;55.820;37.574;2023-03-26T19:43:58;3.60;;;3.13;;
75446;SDS011;64024;55.820;37.574;2023-03-26T19:46:26;4.68;;;4.22;;
75446;SDS011;64024;55.820;37.574;2023-03-26T19:48:54;4.30;;;3.90;;
75446;SDS011;64024;55.820;37.574;2023-03-26T19:51:22;4.97;;;4.57;;
75446;SDS011;64024;55.820;37.574;2023-03-26T19:53:56;4.20;;;3.55;;
75446;SDS011;64024;55.820;37.574;2023-03-26T19:56:25;5.03;;;4.60;;
75446;SDS011;64024;55.820;37.574;2023-03-26T19:58:52;5.30;;;4.80;;
75446;SDS011;64024;55.820;37.574;2023-03-26T20:01:19;5.60;;;5.10;;
75446;SDS011;64024;55.820;37.574;2023-03-26T20:03:51;7.18;;;5.13;;
75446;SDS011;64024;55.820;37.574;2023-03-26T20:06:20;5.63;;;5.10;;
75446;SDS011;64024;55.820;37.574;2023-03-26T20:08:47;6.35;;;4.82;;
75446;SDS011;64024;55.820;37.574;2023-03-26T20:13:49;5.75;;;4.85;;
75446;SDS011;64024;55.820;37.574;2023-03-26T20:18:56;6.57;;;5.97;;
75446;SDS011;64024;55.820;37.574;2023-03-26T20:21:25;6.35;;;5.65;;
75446;SDS011;64024;55.820;37.574;2023-03-26T20:23:51;6.32;;;5.82;;
75446;SDS011;64024;55.820;37.574;2023-03-26T20:26:20;6.53;;;5.88;;
75446;SDS011;64024;55.820;37.574;2023-03-26T20:28:47;6.93;;;5.95;;
75446;SDS011;64024;55.820;37.574;2023-03-26T20:31:15;6.13;;;5.60;;
75446;SDS011;64024;55.820;37.574;2023-03-26T20:33:46;5.75;;;5.25;;
75446;SDS011;64024;55.820;37.574;2023-03-26T20:36:13;6.82;;;6.20;;
75446;SDS011;64024;55.820;37.574;2023-03-26T20:38:40;6.80;;;6.10;;
75446;SDS011;64024;55.820;37.574;2023-03-26T20:41:13;6.85;;;6.15;;
75446;SDS011;64024;55.820;37.574;2023-03-26T20:43:42;6.47;;;5.82;;
75446;SDS011;64024;55.820;37.574;2023-03-26T20:46:12;7.43;;;5.13;;
75446;SDS011;64024;55.820;37.574;2023-03-26T20:48:41;5.35;;;4.70;;
75446;SDS011;64024;55.820;37.574;2023-03-26T20:51:10;5.70;;;5.13;;
75446;SDS011;64024;55.820;37.574;2023-03-26T20:53:42;5.82;;;5.18;;
75446;SDS011;64024;55.820;37.574;2023-03-26T20:56:11;5.75;;;5.15;;
75446;SDS011;64024;55.820;37.574;2023-03-26T20:58:46;6.25;;;5.53;;
75446;SDS011;64024;55.820;37.574;2023-03-26T21:01:18;5.28;;;4.70;;
75446;SDS011;64024;55.820;37.574;2023-03-26T21:03:44;6.55;;;5.93;;
75446;SDS011;64024;55.820;37.574;2023-03-26T21:06:10;5.47;;;4.93;;
75446;SDS011;64024;55.820;37.574;2023-03-26T21:08:40;5.00;;;4.50;;
75446;SDS011;64024;55.820;37.574;2023-03-26T21:14:05;5.68;;;4.78;;
75446;SDS011;64024;55.820;37.574;2023-03-26T21:16:41;5.38;;;4.65;;
75446;SDS011;64024;55.820;37.574;2023-03-26T21:19:07;5.45;;;4.18;;
75446;SDS011;64024;55.820;37.574;2023-03-26T21:26:50;5.80;;;4.78;;
75446;SDS011;64024;55.820;37.574;2023-03-26T21:29:25;6.32;;;5.15;;
75446;SDS011;64024;55.820;37.574;2023-03-26T21:31:51;6.85;;;4.90;;
75446;SDS011;64024;55.820;37.574;2023-03-26T21:34:19;7.35;;;4.72;;
75446;SDS011;64024;55.820;37.574;2023-03-26T21:39:11;4.47;;;3.95;;
75446;SDS011;64024;55.820;37.574;2023-03-26T21:41:42;5.20;;;4.13;;
75446;SDS011;64024;55.820;37.574;2023-03-26T21:44:12;5.70;;;4.68;;
75446;SDS011;64024;55.820;37.574;2023-03-26T21:46:42;4.55;;;3.72;;
75446;SDS011;64024;55.820;37.574;2023-03-26T21:49:09;6.43;;;4.82;;
75446;SDS011;64024;55.820;37.574;2023-03-26T21:51:35;4.72;;;3.53;;
75446;SDS011;64024;55.820;37.574;2023-03-26T21:54:02;5.63;;;3.88;;
75446;SDS011;64024;55.820;37.574;2023-03-26T22:05:01;5.05;;;3.53;;
75446;SDS011;64024;55.820;37.574;2023-03-26T22:07:36;4.43;;;3.50;;
75446;SDS011;64024;55.820;37.574;2023-03-26T22:10:27;4.50;;;3.67;;
75446;SDS011;64024;55.820;37.574;2023-03-26T22:12:53;4.18;;;3.08;;
75446;SDS011;64024;55.820;37.574;2023-03-26T22:15:19;4.50;;;3.28;;
75446;SDS011;64024;55.820;37.574;2023-03-26T22:17:45;3.80;;;3.20;;
75446;SDS011;64024;55.820;37.574;2023-03-26T22:20:18;3.58;;;3.00;;
75446;SDS011;64024;55.820;37.574;2023-03-26T22:22:46;3.65;;;3.08;;
75446;SDS011;64024;55.820;37.574;2023-03-26T22:25:15;3.22;;;2.90;;
75446;SDS011;64024;55.820;37.574;2023-03-26T22:27:45;4.93;;;3.00;;